createdAt,value
2023-01-12T00:02:25.940Z,38.85
2023-01-12T00:04:54.588Z,36.35
2023-01-12T00:07:23.634Z,46.65
2023-01-12T00:09:51.995Z,38.58
2023-01-12T00:12:20.549Z,35.58
2023-01-12T00:14:48.949Z,43.70
2023-01-12T00:17:19.692Z,49.15
2023-01-12T00:19:51.359Z,34.20
2023-01-12T00:22:20.566Z,41.80
2023-01-12T00:24:50.250Z,39.42
2023-01-12T00:27:21.252Z,37.08
2023-01-12T00:29:50.034Z,36.70
2023-01-12T00:32:21.275Z,36.88
2023-01-12T00:34:51.221Z,48.65
2023-01-12T00:37:20.716Z,37.30
2023-01-12T00:40:01.379Z,36.08
2023-01-12T00:43:02.796Z,37.03
2023-01-12T00:45:32.559Z,38.33
2023-01-12T00:48:01.226Z,51.05
2023-01-12T00:50:33.359Z,38.35
2023-01-12T00:53:01.996Z,42.67
2023-01-12T00:55:30.416Z,35.92
2023-01-12T00:58:01.357Z,41.60
2023-01-12T01:00:29.615Z,62.97
2023-01-12T01:03:06.950Z,38.92
2023-01-12T01:05:36.742Z,42.22
2023-01-12T01:08:06.020Z,48.95
2023-01-12T01:10:34.505Z,37.08
2023-01-12T01:13:04.917Z,45.78
2023-01-12T01:15:33.330Z,47.95
2023-01-12T01:18:02.314Z,49.75
2023-01-12T01:20:33.834Z,59.47
2023-01-12T01:23:04.978Z,59.80
2023-01-12T01:25:34.689Z,55.95
2023-01-12T01:28:03.321Z,50.15
2023-01-12T01:30:32.607Z,53.50
2023-01-12T01:33:02.293Z,55.30
2023-01-12T01:35:31.006Z,57.25
2023-01-12T01:38:00.559Z,64.88
2023-01-12T01:40:30.438Z,66.47
2023-01-12T01:43:01.560Z,52.53
2023-01-12T01:45:29.963Z,67.53
2023-01-12T01:48:02.710Z,60.60
2023-01-12T01:50:36.811Z,67.15
2023-01-12T01:53:10.083Z,72.22
2023-01-12T01:55:48.340Z,63.00
2023-01-12T01:58:23.675Z,70.95
2023-01-12T02:03:21.164Z,68.07
2023-01-12T02:05:51.220Z,63.40
2023-01-12T02:08:28.095Z,79.70
2023-01-12T02:11:01.359Z,60.90
2023-01-12T02:13:49.975Z,65.50
2023-01-12T02:16:24.170Z,65.70
2023-01-12T02:19:34.127Z,49.95
2023-01-12T02:22:45.601Z,51.40
2023-01-12T02:26:19.040Z,44.78
2023-01-12T02:29:18.941Z,48.25
2023-01-12T02:32:00.111Z,56.40
2023-01-12T02:34:40.089Z,50.97
2023-01-12T02:37:19.416Z,47.35
2023-01-12T02:39:59.870Z,53.33
2023-01-12T02:42:47.622Z,43.05
2023-01-12T02:45:32.703Z,44.55
2023-01-12T02:48:14.087Z,43.03
2023-01-12T02:50:53.663Z,33.90
2023-01-12T02:53:30.547Z,38.00
2023-01-12T02:56:02.967Z,31.02
2023-01-12T02:58:36.931Z,28.20
2023-01-12T03:01:07.511Z,27.30
2023-01-12T03:03:39.964Z,37.45
2023-01-12T03:06:09.973Z,32.72
2023-01-12T03:08:40.824Z,23.70
2023-01-12T03:11:14.632Z,27.83
2023-01-12T03:13:48.484Z,27.67
2023-01-12T03:16:21.504Z,26.77
2023-01-12T03:18:56.842Z,30.27
2023-01-12T03:21:31.713Z,23.27
2023-01-12T03:24:06.445Z,27.58
2023-01-12T03:26:38.573Z,31.38
2023-01-12T03:29:13.690Z,22.20
2023-01-12T03:31:43.457Z,26.00
2023-01-12T03:34:14.221Z,25.30
2023-01-12T03:36:54.682Z,28.83
2023-01-12T03:39:35.965Z,19.00
2023-01-12T03:42:11.547Z,28.63
2023-01-12T03:44:48.611Z,26.52
2023-01-12T03:47:23.926Z,30.48
2023-01-12T03:52:26.539Z,21.75
2023-01-12T03:54:59.019Z,17.88
2023-01-12T03:57:30.160Z,17.63
2023-01-12T04:00:00.955Z,19.63
2023-01-12T04:02:29.708Z,13.18
2023-01-12T04:05:00.409Z,22.30
2023-01-12T04:07:32.948Z,14.48
2023-01-12T04:10:01.610Z,23.85
2023-01-12T04:12:31.075Z,18.95
2023-01-12T04:15:00.093Z,12.93
2023-01-12T04:17:31.666Z,16.80
2023-01-12T04:20:02.839Z,15.20
2023-01-12T04:22:45.663Z,24.52
2023-01-12T04:25:18.339Z,16.88
2023-01-12T04:27:49.725Z,12.52
2023-01-12T04:30:22.835Z,11.95
2023-01-12T04:32:52.486Z,11.07
2023-01-12T04:35:29.870Z,12.38
2023-01-12T04:37:58.446Z,12.18
2023-01-12T04:40:27.144Z,16.55
2023-01-12T04:43:07.497Z,10.45
2023-01-12T04:45:38.820Z,8.63
2023-01-12T04:48:10.580Z,8.32
2023-01-12T04:50:41.592Z,14.50
2023-01-12T04:53:12.642Z,12.00
2023-01-12T04:55:43.804Z,11.57
2023-01-12T04:58:15.103Z,18.52
2023-01-12T05:00:43.593Z,19.10
2023-01-12T05:03:15.146Z,13.88
2023-01-12T05:05:45.058Z,12.57
2023-01-12T05:08:31.439Z,10.60
2023-01-12T05:11:02.365Z,7.90
2023-01-12T05:13:35.226Z,13.82
2023-01-12T05:16:12.851Z,8.75
2023-01-12T05:18:41.718Z,4.47
2023-01-12T05:21:18.206Z,11.18
2023-01-12T05:23:46.933Z,7.88
2023-01-12T05:26:26.160Z,7.68
2023-01-12T05:28:54.796Z,6.57
2023-01-12T05:31:23.482Z,9.13
2023-01-12T05:33:54.845Z,6.82
2023-01-12T05:36:26.536Z,9.98
2023-01-12T05:38:55.117Z,4.10
2023-01-12T05:41:23.945Z,8.70
2023-01-12T05:43:54.087Z,9.40
2023-01-12T05:46:25.281Z,10.27
2023-01-12T05:48:55.221Z,8.73
2023-01-12T05:51:27.931Z,6.38
2023-01-12T05:53:56.567Z,6.78
2023-01-12T05:56:28.267Z,7.57
2023-01-12T05:58:59.572Z,5.40
2023-01-12T06:01:29.502Z,11.93
2023-01-12T06:03:59.933Z,9.05
2023-01-12T06:06:31.951Z,7.78
2023-01-12T06:09:02.234Z,9.07
2023-01-12T06:11:54.236Z,7.45
2023-01-12T06:14:25.176Z,7.65
2023-01-12T06:16:53.805Z,6.15
2023-01-12T06:19:28.052Z,6.18
2023-01-12T06:21:59.599Z,13.95
2023-01-12T06:24:29.213Z,10.23
2023-01-12T06:26:58.674Z,9.00
2023-01-12T06:29:27.309Z,14.55
2023-01-12T06:31:55.947Z,10.90
2023-01-12T06:34:24.415Z,11.40
2023-01-12T06:36:53.020Z,13.95
2023-01-12T06:39:22.982Z,16.38
2023-01-12T06:42:08.728Z,16.30
2023-01-12T06:47:06.215Z,37.15
2023-01-12T06:49:36.500Z,32.80
2023-01-12T06:52:05.276Z,50.70
2023-01-12T06:54:35.648Z,58.55
2023-01-12T06:57:06.461Z,61.42
2023-01-12T06:59:35.764Z,46.72
2023-01-12T07:02:10.994Z,57.83
2023-01-12T07:04:40.168Z,69.93
2023-01-12T07:07:10.504Z,60.80
2023-01-12T07:09:41.528Z,54.17
2023-01-12T07:12:09.993Z,60.13
2023-01-12T07:14:39.564Z,74.82
2023-01-12T07:20:04.497Z,78.57
2023-01-12T07:22:33.019Z,69.65
2023-01-12T07:25:03.178Z,74.72
2023-01-12T07:27:31.981Z,81.80
2023-01-12T07:30:00.675Z,90.75
2023-01-12T07:32:29.867Z,79.32
2023-01-12T07:34:58.638Z,75.07
2023-01-12T07:37:27.374Z,70.82
2023-01-12T07:39:59.054Z,62.53
2023-01-12T07:42:29.250Z,70.07
2023-01-12T07:44:57.684Z,71.60
2023-01-12T07:47:27.925Z,72.90
2023-01-12T07:49:56.710Z,70.38
2023-01-12T07:52:25.128Z,59.03
2023-01-12T07:54:53.711Z,71.90
2023-01-12T07:57:22.603Z,60.00
2023-01-12T07:59:52.420Z,59.92
2023-01-12T08:02:21.221Z,53.80
2023-01-12T08:04:49.739Z,51.47
2023-01-12T08:07:18.253Z,41.10
2023-01-12T08:09:47.049Z,48.65
2023-01-12T08:12:16.019Z,51.33
2023-01-12T08:14:44.734Z,54.20
2023-01-12T08:17:20.100Z,53.38
2023-01-12T08:19:55.326Z,36.95
2023-01-12T08:22:30.247Z,47.60
2023-01-12T08:25:05.560Z,52.10
2023-01-12T08:30:08.256Z,47.42
2023-01-12T08:32:39.036Z,44.70
2023-01-12T08:35:08.891Z,46.00
2023-01-12T08:37:37.932Z,42.60
2023-01-12T08:40:08.708Z,34.17
2023-01-12T08:42:37.417Z,50.00
2023-01-12T08:45:08.366Z,43.60
2023-01-12T08:47:40.830Z,43.10
2023-01-12T08:50:10.897Z,43.95
2023-01-12T08:52:39.477Z,52.05
2023-01-12T08:55:11.532Z,41.65
2023-01-12T08:57:40.022Z,40.58
2023-01-12T09:03:17.209Z,39.65
2023-01-12T09:05:45.953Z,37.10
2023-01-12T09:08:14.657Z,47.47
2023-01-12T09:10:43.138Z,44.38
2023-01-12T09:13:15.754Z,41.65
2023-01-12T09:15:56.515Z,39.78
2023-01-12T09:18:35.160Z,35.20
2023-01-12T09:21:06.296Z,40.05
2023-01-12T09:23:34.953Z,40.72
2023-01-12T09:26:08.614Z,41.85
2023-01-12T09:28:37.819Z,39.33
2023-01-12T09:31:08.316Z,37.05
2023-01-12T09:33:40.764Z,31.15
2023-01-12T09:36:12.028Z,29.63
2023-01-12T09:38:42.768Z,40.80
2023-01-12T09:41:13.788Z,31.52
2023-01-12T09:44:00.471Z,37.85
2023-01-12T09:46:49.775Z,33.05
2023-01-12T09:49:21.024Z,36.50
2023-01-12T09:51:57.368Z,40.78
2023-01-12T09:54:26.516Z,34.53
2023-01-12T09:57:06.240Z,38.13
2023-01-12T09:59:47.271Z,43.28
2023-01-12T10:02:16.630Z,37.97
2023-01-12T10:04:49.463Z,42.72
2023-01-12T10:07:19.809Z,34.03
2023-01-12T10:09:51.578Z,35.10
2023-01-12T10:12:28.934Z,41.65
2023-01-12T10:15:15.178Z,45.38
2023-01-12T10:17:51.986Z,37.25
2023-01-12T10:20:31.319Z,39.08
2023-01-12T10:23:12.648Z,37.95
2023-01-12T10:25:46.251Z,43.25
2023-01-12T10:28:22.646Z,43.63
2023-01-12T10:30:51.159Z,35.97
2023-01-12T10:33:22.789Z,40.95
2023-01-12T10:35:57.484Z,32.63
2023-01-12T10:38:34.038Z,36.42
2023-01-12T10:41:17.318Z,34.50
2023-01-12T10:44:07.393Z,39.25
2023-01-12T10:46:39.023Z,36.60
2023-01-12T10:49:20.441Z,40.80
2023-01-12T10:51:56.606Z,25.95
2023-01-12T10:54:28.314Z,30.92
2023-01-12T10:57:03.068Z,34.53
2023-01-12T10:59:35.539Z,36.42
2023-01-12T11:02:17.945Z,40.33
2023-01-12T11:04:49.324Z,38.08
2023-01-12T11:07:22.178Z,33.15
2023-01-12T11:09:51.466Z,37.30
2023-01-12T11:12:24.955Z,41.85
2023-01-12T11:15:03.757Z,36.00
2023-01-12T11:17:56.181Z,38.55
2023-01-12T11:20:38.155Z,31.52
2023-01-12T11:23:19.071Z,38.25
2023-01-12T11:25:50.870Z,23.52
2023-01-12T11:28:26.413Z,38.72
2023-01-12T11:30:59.871Z,42.88
2023-01-12T11:33:34.153Z,43.33
2023-01-12T11:36:08.046Z,37.38
2023-01-12T11:38:42.665Z,38.50
2023-01-12T11:41:22.802Z,46.33
2023-01-12T11:44:01.125Z,40.17
2023-01-12T11:46:36.023Z,41.15
2023-01-12T11:49:15.907Z,47.03
2023-01-12T11:51:44.964Z,40.75
2023-01-12T11:54:20.367Z,40.78
2023-01-12T11:57:45.617Z,39.00
2023-01-12T12:00:41.985Z,50.42
2023-01-12T12:03:42.578Z,55.00
2023-01-12T12:06:35.961Z,46.20
2023-01-12T12:09:27.112Z,48.95
2023-01-12T12:12:01.120Z,50.40
2023-01-12T12:14:47.513Z,48.42
2023-01-12T12:17:28.896Z,46.17
2023-01-12T12:20:10.734Z,36.80
2023-01-12T12:22:58.717Z,46.33
2023-01-12T12:25:46.037Z,41.13
2023-01-12T12:29:03.979Z,44.92
2023-01-12T12:31:50.226Z,47.85
2023-01-12T12:35:01.713Z,52.78
2023-01-12T12:37:51.220Z,52.00
2023-01-12T12:40:56.008Z,53.45
2023-01-12T12:43:51.440Z,44.92
2023-01-12T12:46:41.442Z,49.83
2023-01-12T12:49:18.058Z,54.35
2023-01-12T12:51:48.105Z,48.97
2023-01-12T12:54:20.037Z,47.30
2023-01-12T12:56:53.467Z,41.72
2023-01-12T12:59:57.533Z,47.47
2023-01-12T13:02:46.290Z,37.45
2023-01-12T13:05:57.686Z,35.42
2023-01-12T13:08:29.068Z,31.80
2023-01-12T13:11:01.195Z,37.90
2023-01-12T13:13:45.007Z,27.23
2023-01-12T13:16:49.715Z,25.60
2023-01-12T13:19:39.322Z,28.52
2023-01-12T13:22:31.237Z,25.75
2023-01-12T13:25:03.565Z,27.75
2023-01-12T13:27:56.055Z,17.08
2023-01-12T13:30:53.851Z,20.08
2023-01-12T13:33:28.525Z,13.40
2023-01-12T13:36:11.700Z,13.77
2023-01-12T13:39:13.849Z,10.55
2023-01-12T13:42:02.343Z,10.00
2023-01-12T13:44:38.787Z,13.73
2023-01-12T13:47:17.397Z,8.57
2023-01-12T13:49:50.288Z,5.95
2023-01-12T13:52:28.045Z,7.40
2023-01-12T13:54:58.456Z,6.90
2023-01-12T13:57:29.737Z,8.32
2023-01-12T14:00:00.898Z,7.32
2023-01-12T14:02:34.648Z,9.32
2023-01-12T14:05:23.068Z,7.95
2023-01-12T14:08:02.803Z,6.78
2023-01-12T14:10:44.573Z,12.48
2023-01-12T14:13:42.527Z,10.85
2023-01-12T14:16:33.364Z,7.32
2023-01-12T14:19:03.978Z,6.20
2023-01-12T14:21:37.564Z,7.20
2023-01-12T14:24:17.515Z,3.90
2023-01-12T14:26:46.224Z,5.95
2023-01-12T14:29:14.874Z,5.72
2023-01-12T14:31:46.335Z,5.28
2023-01-12T14:34:31.890Z,9.32
2023-01-12T14:37:01.209Z,9.23
2023-01-12T14:39:37.067Z,9.57
2023-01-12T14:42:23.109Z,5.32
2023-01-12T14:45:16.995Z,6.47
2023-01-12T14:47:45.462Z,7.30
2023-01-12T14:50:22.058Z,5.47
2023-01-12T14:52:53.468Z,8.18
2023-01-12T14:55:39.347Z,6.30
2023-01-12T14:58:17.279Z,9.30
2023-01-12T15:00:46.745Z,10.63
2023-01-12T15:03:28.852Z,11.52
2023-01-12T15:06:08.438Z,17.88
2023-01-12T15:08:37.058Z,8.05
2023-01-12T15:11:11.100Z,9.80
2023-01-12T15:13:40.346Z,9.88
2023-01-12T15:16:28.119Z,9.68
2023-01-12T15:19:13.995Z,5.22
2023-01-12T15:24:54.301Z,4.43
2023-01-12T15:27:24.780Z,4.63
2023-01-12T15:29:54.957Z,4.85
2023-01-12T15:32:46.355Z,7.68
2023-01-12T15:35:18.005Z,5.95
2023-01-12T15:37:47.927Z,5.28
2023-01-12T15:40:17.395Z,5.85
2023-01-12T15:42:46.246Z,7.78
2023-01-12T15:45:27.407Z,4.78
2023-01-12T15:47:56.346Z,7.47
2023-01-12T15:50:25.465Z,7.95
2023-01-12T15:52:56.667Z,7.75
2023-01-12T15:55:25.838Z,3.63
2023-01-12T15:57:54.346Z,7.68
2023-01-12T16:00:25.340Z,4.35
2023-01-12T16:02:54.662Z,5.68
2023-01-12T16:05:27.672Z,5.93
2023-01-12T16:07:57.909Z,8.73
2023-01-12T16:10:30.200Z,7.95
2023-01-12T16:13:01.867Z,6.07
2023-01-12T16:15:31.626Z,4.68
2023-01-12T16:18:00.285Z,4.15
2023-01-12T16:20:28.855Z,5.50
2023-01-12T16:23:00.615Z,7.72
2023-01-12T16:25:29.560Z,5.97
2023-01-12T16:28:01.015Z,7.20
2023-01-12T16:30:29.638Z,10.18
2023-01-12T16:33:00.180Z,6.97
2023-01-12T16:35:28.848Z,6.95
2023-01-12T16:37:58.751Z,7.00
2023-01-12T16:40:27.557Z,6.05
2023-01-12T16:42:56.510Z,8.07
2023-01-12T16:45:25.360Z,6.53
2023-01-12T16:48:01.190Z,4.65
2023-01-12T16:50:30.443Z,3.40
2023-01-12T16:53:05.830Z,6.07
2023-01-12T16:55:37.226Z,7.25
2023-01-12T16:58:08.809Z,13.95
2023-01-12T17:00:37.806Z,7.38
2023-01-12T17:03:06.856Z,6.68
2023-01-12T17:05:43.896Z,9.90
2023-01-12T17:08:20.547Z,12.98
2023-01-12T17:10:51.507Z,8.45
2023-01-12T17:13:20.623Z,8.88
2023-01-12T17:15:49.029Z,8.85
2023-01-12T17:18:17.663Z,6.45
2023-01-12T17:20:46.379Z,8.93
2023-01-12T17:23:15.138Z,10.02
2023-01-12T17:25:45.464Z,10.00
2023-01-12T17:28:14.329Z,7.50
2023-01-12T17:30:43.153Z,10.10
2023-01-12T17:33:12.444Z,14.05
2023-01-12T17:35:41.127Z,13.30
2023-01-12T17:38:09.863Z,16.98
2023-01-12T17:40:41.080Z,14.48
2023-01-12T17:43:14.598Z,10.73
2023-01-12T17:45:44.511Z,17.55
2023-01-12T17:48:13.601Z,12.27
2023-01-12T17:50:42.446Z,21.77
2023-01-12T17:53:11.343Z,12.57
2023-01-12T17:55:48.250Z,19.13
2023-01-12T17:58:19.983Z,23.33
2023-01-12T18:00:48.686Z,11.80
2023-01-12T18:03:17.611Z,10.43
2023-01-12T18:05:50.000Z,13.35
2023-01-12T18:08:22.484Z,15.52
2023-01-12T18:10:52.839Z,14.98
2023-01-12T18:13:24.056Z,17.20
2023-01-12T18:15:55.252Z,14.93
2023-01-12T18:18:23.969Z,20.30
2023-01-12T18:20:53.746Z,15.75
2023-01-12T18:23:25.271Z,16.30
2023-01-12T18:25:53.880Z,19.55
2023-01-12T18:28:25.233Z,19.17
2023-01-12T18:31:03.691Z,31.13
2023-01-12T18:33:34.177Z,21.20
2023-01-12T18:36:12.486Z,18.13
2023-01-12T18:38:41.734Z,18.48
2023-01-12T18:41:28.651Z,20.17
2023-01-12T18:43:59.593Z,24.42
2023-01-12T18:46:50.971Z,20.73
2023-01-12T18:49:22.389Z,19.48
2023-01-12T18:52:08.829Z,16.33
2023-01-12T18:54:38.021Z,21.02
2023-01-12T18:57:06.799Z,18.13
2023-01-12T18:59:36.911Z,16.05
2023-01-12T19:02:06.477Z,20.75
2023-01-12T19:04:58.494Z,27.77
2023-01-12T19:07:31.942Z,24.35
2023-01-12T19:10:03.063Z,19.13
2023-01-12T19:12:34.225Z,15.68
2023-01-12T19:15:25.073Z,18.88
2023-01-12T19:17:53.616Z,15.48
2023-01-12T19:20:26.990Z,19.85
2023-01-12T19:23:15.986Z,10.00
2023-01-12T19:26:08.710Z,23.30
2023-01-12T19:28:39.681Z,20.48
2023-01-12T19:31:15.263Z,10.88
2023-01-12T19:33:44.838Z,18.88
2023-01-12T19:36:20.647Z,15.82
2023-01-12T19:38:59.111Z,15.73
2023-01-12T19:41:45.736Z,19.65
2023-01-12T19:44:22.281Z,19.40
2023-01-12T19:46:57.221Z,23.05
2023-01-12T19:49:55.199Z,19.27
2023-01-12T19:52:27.887Z,17.23
2023-01-12T19:54:59.585Z,15.95
2023-01-12T19:57:30.997Z,14.23
2023-01-12T20:00:07.082Z,14.73
2023-01-12T20:02:38.312Z,12.60
2023-01-12T20:05:08.702Z,15.18
2023-01-12T20:07:40.585Z,16.17
2023-01-12T20:10:14.792Z,11.45
2023-01-12T20:12:45.315Z,12.95
2023-01-12T20:15:15.512Z,12.25
2023-01-12T20:17:46.690Z,19.30
2023-01-12T20:20:17.072Z,11.85
2023-01-12T20:22:49.069Z,21.20
2023-01-12T20:25:20.766Z,13.40
2023-01-12T20:27:50.955Z,12.45
2023-01-12T20:30:37.341Z,11.45
2023-01-12T20:33:09.579Z,17.70
2023-01-12T20:35:50.345Z,18.48
2023-01-12T20:38:22.853Z,12.18
2023-01-12T20:40:53.940Z,12.55
2023-01-12T20:43:24.722Z,15.57
2023-01-12T20:45:53.935Z,21.35
2023-01-12T20:48:36.873Z,19.02
2023-01-12T20:51:09.412Z,10.88
2023-01-12T20:53:39.508Z,17.58
2023-01-12T20:56:09.751Z,15.88
2023-01-12T20:58:43.768Z,19.00
2023-01-12T21:01:17.098Z,18.42
2023-01-12T21:03:48.153Z,16.33
2023-01-12T21:06:19.882Z,23.58
2023-01-12T21:08:50.028Z,19.70
2023-01-12T21:11:22.899Z,22.25
2023-01-12T21:13:52.376Z,18.27
2023-01-12T21:16:22.847Z,18.98
2023-01-12T21:18:59.709Z,12.93
2023-01-12T21:21:31.278Z,22.30
2023-01-12T21:24:05.107Z,24.38
2023-01-12T21:26:34.577Z,21.77
2023-01-12T21:29:04.556Z,19.55
2023-01-12T21:31:34.483Z,19.85
2023-01-12T21:34:04.647Z,14.40
2023-01-12T21:36:34.482Z,22.63
2023-01-12T21:39:04.516Z,21.98
2023-01-12T21:41:53.629Z,26.67
2023-01-12T21:44:22.549Z,32.25
2023-01-12T21:46:51.025Z,27.17
2023-01-12T21:49:20.790Z,32.92
2023-01-12T21:51:49.370Z,27.65
2023-01-12T21:54:18.019Z,28.10
2023-01-12T21:56:46.917Z,26.30
2023-01-12T21:59:15.674Z,28.67
2023-01-12T22:01:45.427Z,27.15
2023-01-12T22:04:14.538Z,44.15
2023-01-12T22:06:44.872Z,43.85
2023-01-12T22:09:16.899Z,40.92
2023-01-12T22:11:45.701Z,31.85
2023-01-12T22:14:14.684Z,40.42
2023-01-12T22:16:43.392Z,37.03
2023-01-12T22:19:13.397Z,52.75
2023-01-12T22:21:43.155Z,41.30
2023-01-12T22:24:17.773Z,44.75
2023-01-12T22:26:47.843Z,40.72
2023-01-12T22:29:16.725Z,41.38
2023-01-12T22:31:46.292Z,48.95
2023-01-12T22:34:17.240Z,33.33
2023-01-12T22:36:48.841Z,47.42
2023-01-12T22:39:17.321Z,51.47
2023-01-12T22:41:47.369Z,59.85
2023-01-12T22:44:16.035Z,42.83
2023-01-12T22:46:44.460Z,48.08
2023-01-12T22:49:12.922Z,54.40
2023-01-12T22:51:41.249Z,57.97
2023-01-12T22:54:11.186Z,64.32
2023-01-12T22:56:39.591Z,64.03
2023-01-12T22:59:09.766Z,59.47
2023-01-12T23:01:38.163Z,47.80
2023-01-12T23:04:06.572Z,50.03
2023-01-12T23:06:37.379Z,53.15
2023-01-12T23:09:05.890Z,48.83
2023-01-12T23:11:36.346Z,53.38
2023-01-12T23:14:04.968Z,45.20
2023-01-12T23:16:33.575Z,55.17
2023-01-12T23:19:01.940Z,43.88
2023-01-12T23:21:31.537Z,46.65
2023-01-12T23:24:01.808Z,52.22
2023-01-12T23:26:33.431Z,51.13
2023-01-12T23:29:03.861Z,40.80
2023-01-12T23:31:34.796Z,49.72
2023-01-12T23:34:03.342Z,57.63
2023-01-12T23:36:32.673Z,41.80
2023-01-12T23:39:04.117Z,43.78
2023-01-12T23:41:35.420Z,60.60
2023-01-12T23:44:08.534Z,52.58
2023-01-12T23:46:40.851Z,61.40
2023-01-12T23:49:10.744Z,49.75
2023-01-12T23:51:41.599Z,47.03
2023-01-12T23:54:13.872Z,50.92
2023-01-12T23:56:42.631Z,42.53
2023-01-12T23:59:12.440Z,46.17
